Date,TemperatureHighF,TemperatureAvgF,TemperatureLowF,DewpointHighF,DewpointAvgF,DewpointLowF,HumidityHigh,HumidityAvg,HumidityLow,PressureMaxIn,PressureMinIn,WindSpeedMaxMPH,WindSpeedAvgMPH,GustSpeedMaxMPH,PrecipitationSumIn
2014-1-1,79.9,63.0,52.0,29.8,21.8,15.3,25,21,16,30.12,30.04,4,2,4,0.00
2014-1-2,81.9,64.5,55.4,31.2,24.7,21.1,27,22,16,30.11,30.00,4,2,4,0.00
2014-1-3,79.3,64.3,54.9,31.8,25.4,20.6,27,23,17,30.00,29.87,3,2,3,0.00
2014-1-4,60.1,58.6,57.7,24.8,23.2,22.4,28,25,24,30.00,29.99,2,1,2,0.00
2014-1-5,77.4,65.3,54.7,30.1,23.3,16.6,25,20,16,30.17,30.02,21,5,21,0.00
2014-1-6,78.4,62.2,51.4,30.0,21.9,15.6,25,21,16,30.26,30.10,11,3,11,0.00
2014-1-7,66.9,57.4,49.8,23.6,19.5,14.6,25,23,19,30.10,29.99,4,2,4,0.00
2014-1-8,73.9,59.1,50.7,29.0,19.8,15.2,25,22,16,30.06,29.95,4,2,4,0.00
2014-1-9,71.6,59.3,51.1,26.4,21.0,16.1,27,23,17,30.00,29.88,4,2,4,0.00
2014-1-10,79.3,61.5,52.2,32.0,25.2,20.1,32,25,16,30.07,29.98,4,2,4,0.00
2014-1-11,78.4,62.9,54.0,33.6,27.4,22.6,32,26,18,30.12,29.95,10,2,10,0.00
2014-1-12,71.8,64.6,56.7,35.2,27.2,21.0,34,25,19,30.20,29.92,18,7,18,0.00
2014-1-13,75.0,64.7,54.0,29.9,23.0,15.9,25,20,16,30.33,30.22,22,7,22,0.00
2014-1-14,82.9,69.9,61.5,35.1,25.1,22.3,22,19,15,30.32,30.20,23,7,23,0.00
2014-1-15,86.7,70.7,61.7,35.1,25.8,22.1,22,19,15,30.26,30.13,20,4,20,0.00
2014-1-16,85.1,71.8,62.4,35.4,25.8,22.7,22,18,15,30.16,30.07,14,6,14,0.00
2014-1-17,86.2,74.0,59.9,36.0,27.3,22.0,23,18,15,30.14,30.02,9,2,9,0.00
2014-1-18,64.4,61.2,60.4,22.8,22.3,21.7,23,22,20,30.05,30.02,4,1,4,0.00
2014-1-19,80.8,65.4,57.4,29.9,24.0,20.8,24,21,15,30.11,30.02,4,2,4,0.00
2014-1-20,82.2,65.9,54.7,30.1,24.0,16.5,25,21,15,30.16,30.05,4,2,4,0.00
2014-1-21,78.4,65.9,58.1,30.0,24.0,21.2,24,20,16,30.17,30.05,4,2,4,0.00
2014-1-22,85.8,69.0,59.5,36.0,25.3,21.7,23,20,15,30.03,29.82,8,2,8,0.00
2014-1-23,82.0,67.0,56.7,30.1,24.2,20.8,25,20,15,30.12,29.82,11,4,11,0.00
2014-1-24,71.8,67.0,63.1,25.5,23.6,22.4,21,19,16,30.24,30.12,8,3,8,0.00
2014-1-25,77.9,69.2,60.8,32.3,26.5,21.7,23,20,16,30.18,30.05,8,2,8,0.00
2014-1-26,60.1,58.1,56.7,23.8,23.1,22.4,27,26,24,30.05,30.01,3,2,3,0.00
2014-1-30,61.2,60.2,59.5,49.3,48.0,45.7,68,64,59,29.75,29.70,18,14,18,0.00
2014-1-31,61.5,57.3,51.1,47.4,42.7,27.6,73,59,40,29.85,29.74,25,11,25,0.00
2014-2-1,66.2,57.5,48.2,26.3,22.3,18.2,40,26,21,29.96,29.85,27,12,27,0.00
2014-2-2,63.1,52.6,44.4,31.4,19.4,10.1,45,28,21,30.03,29.87,9,3,9,0.00
2014-2-3,64.8,54.8,46.9,40.5,33.3,26.6,66,46,26,29.89,29.77,14,4,14,0.00
2014-2-4,62.6,55.3,46.9,41.6,37.2,32.3,65,51,34,29.99,29.88,11,3,11,0.00
2014-2-5,67.6,56.2,47.5,41.1,35.6,31.9,66,48,29,30.02,29.91,6,2,6,0.00
2014-2-6,61.3,55.4,52.2,44.4,41.1,34.6,72,59,42,29.96,29.84,29,9,29,0.00
2014-2-7,64.6,57.4,51.6,45.7,42.7,40.0,76,59,43,30.05,29.90,14,6,14,0.00
2014-2-8,72.0,60.8,51.3,44.9,41.1,36.6,63,50,32,30.14,30.02,13,2,13,0.00
2014-2-9,77.7,64.1,55.0,47.7,40.2,27.1,65,44,18,30.07,29.91,14,3,14,0.00
2014-2-10,75.7,67.8,60.3,45.8,41.5,32.8,54,39,25,29.97,29.90,14,4,14,0.00
2014-2-11,83.7,73.3,58.5,39.2,31.0,24.7,34,21,16,30.05,29.95,8,2,8,0.00
2014-2-12,85.8,76.3,59.5,37.5,29.8,24.4,27,18,15,30.11,29.98,8,2,8,0.00
2014-2-13,87.3,72.8,63.0,37.4,29.9,24.1,31,21,16,30.02,29.90,4,2,4,0.00
2014-2-14,90.0,74.0,63.3,36.7,28.6,22.7,23,19,14,30.01,29.91,5,2,5,0.00
2014-2-15,85.8,74.4,63.1,37.4,28.8,22.5,23,19,16,29.98,29.88,4,2,4,0.00
2014-2-16,84.7,75.0,65.8,38.3,29.9,23.0,24,19,15,29.98,29.88,9,2,9,0.00
2014-2-17,84.0,73.0,63.0,41.1,30.2,23.6,25,21,15,29.98,29.85,11,3,11,0.00
2014-2-22,79.5,67.1,57.4,33.0,27.5,21.7,28,23,17,29.88,29.80,4,2,4,0.00
2014-2-23,81.5,68.4,57.4,32.4,26.9,22.1,27,21,15,29.94,29.85,6,2,6,0.00
2014-2-24,82.0,68.6,58.1,33.2,27.5,22.2,26,22,16,29.96,29.85,5,2,5,0.00
2014-2-25,81.9,68.3,58.1,37.0,32.6,27.3,39,28,18,29.94,29.84,5,2,5,0.00
2014-2-26,69.1,62.4,55.0,47.5,41.5,28.5,62,47,32,29.97,29.87,18,7,18,0.00
2014-2-27,71.1,65.3,60.4,52.3,45.9,37.8,69,51,33,29.92,29.75,20,10,20,0.00
2014-2-28,64.8,57.4,53.8,59.5,51.2,27.1,99,81,24,29.80,29.53,27,5,27,0.31
2014-3-1,62.8,55.8,51.1,50.9,46.3,41.2,89,72,53,29.79,29.72,13,4,13,0.11
2014-3-2,66.6,57.0,49.3,50.6,47.1,43.4,85,71,44,30.06,29.89,8,3,8,0.00
2014-3-3,73.6,62.8,52.0,50.2,46.1,41.0,82,57,32,30.05,29.93,4,2,4,0.00
2014-3-4,75.7,68.6,57.2,51.0,47.9,43.8,68,48,36,29.96,29.85,14,3,14,0.00
2014-3-12,77.5,67.1,58.8,29.9,24.8,21.7,24,20,17,30.05,29.91,25,10,25,0.00
2014-3-13,79.7,67.2,59.0,30.8,25.5,21.2,25,21,16,29.92,29.80,11,3,11,0.00
2014-3-14,84.4,70.0,56.5,36.2,28.5,21.6,26,22,15,30.00,29.88,16,3,16,0.00
2014-3-15,87.6,75.7,62.6,36.0,29.3,22.1,23,18,15,30.19,30.00,21,6,21,0.00
2014-3-16,91.2,78.0,65.8,35.9,28.9,23.0,20,17,14,30.24,30.02,7,2,7,0.00
2014-3-17,82.6,72.9,64.4,46.8,32.1,22.7,45,24,15,30.03,29.62,21,7,21,0.00
2014-3-18,80.4,71.8,62.4,36.6,26.3,22.1,30,18,16,29.88,29.69,27,10,27,0.01
2014-3-19,66.2,64.2,62.8,23.1,22.7,22.2,21,20,19,30.01,29.99,3,2,3,0.00
2014-3-20,83.3,70.2,58.1,35.4,27.4,21.2,28,21,15,30.00,29.81,12,3,12,0.00
2014-3-21,78.8,67.5,57.7,46.7,34.0,25.2,53,30,16,29.86,29.78,16,6,16,0.00
2014-3-22,75.6,66.4,56.8,46.1,41.2,33.8,48,40,32,29.95,29.81,17,4,17,0.00
2014-3-23,85.6,71.0,57.9,45.3,38.6,33.1,49,32,18,30.00,29.90,5,2,5,0.00
2014-3-24,88.3,72.8,61.5,39.0,33.1,25.4,37,24,15,29.99,29.86,8,2,8,0.00
2014-3-25,84.2,69.0,59.4,51.7,37.5,21.8,70,35,19,29.89,29.71,19,7,19,0.00
2014-3-26,64.4,59.2,55.8,47.4,42.8,33.6,70,55,32,29.84,29.73,27,16,27,0.05
2014-3-27,68.9,61.0,53.2,45.7,42.2,38.0,73,51,33,29.92,29.83,21,9,21,0.00
2014-4-3,77.0,61.6,47.1,38.5,31.7,24.6,58,36,17,30.03,29.91,6,2,6,0.00
2014-4-4,72.0,62.4,54.3,42.1,31.4,23.1,61,34,16,29.95,29.79,17,6,17,0.00
2014-4-5,75.0,61.7,49.8,44.6,35.2,27.0,63,39,21,29.94,29.78,14,4,14,0.00
2014-4-6,87.1,72.8,57.2,36.0,29.9,24.4,38,21,15,30.05,29.91,15,6,15,0.00
2014-4-7,93.6,78.8,64.6,38.4,31.9,25.7,25,19,14,30.08,29.96,17,4,17,0.00
2014-4-8,95.2,81.4,67.6,38.0,31.8,24.6,21,17,13,30.07,29.93,11,2,11,0.00
2014-4-9,96.8,88.5,71.1,38.3,34.5,23.7,20,15,12,29.98,29.84,14,5,14,0.00
2014-4-10,97.0,85.1,70.7,38.5,33.3,23.0,19,16,12,29.90,29.79,18,6,18,0.00
2014-4-11,78.6,77.7,75.4,30.1,29.6,28.9,18,17,17,29.83,29.81,5,2,5,0.00
2014-4-20,92.8,79.2,64.8,51.8,45.4,39.9,44,31,21,29.99,29.88,9,3,9,0.00
2014-4-21,95.4,81.9,69.6,52.2,43.3,37.0,40,27,14,29.96,29.81,14,4,14,0.00
2014-4-22,79.7,72.8,62.4,50.1,37.2,26.0,58,30,16,29.82,29.72,23,10,23,0.00
2014-4-23,88.0,71.5,58.3,45.2,35.5,23.5,54,29,15,29.86,29.74,11,4,11,0.00
2014-4-24,91.4,75.3,60.4,45.8,32.9,21.7,43,22,14,29.90,29.76,11,4,11,0.00
2014-4-25,77.5,68.9,58.6,50.4,40.8,29.7,61,38,19,29.81,29.64,26,12,26,0.00
2014-4-26,65.7,60.5,49.5,48.5,38.3,33.4,89,45,32,29.84,29.61,26,13,26,0.06
2014-4-27,77.7,64.1,52.7,45.8,42.1,38.7,62,46,28,29.91,29.81,17,4,17,0.00
2014-4-28,90.0,74.0,57.6,42.2,36.4,25.2,54,29,14,29.98,29.84,14,4,14,0.00
2014-4-29,90.5,77.7,67.5,35.9,29.0,23.0,20,17,14,30.14,29.99,14,5,14,0.00
2014-4-30,88.3,75.9,63.9,35.7,28.1,22.4,21,17,15,30.16,29.94,15,5,15,0.00
2014-5-1,96.3,80.5,66.2,38.1,30.7,22.7,19,17,13,30.10,29.91,12,4,12,0.00
2014-5-2,100.8,91.4,70.3,44.7,35.2,23.0,19,14,11,29.98,29.83,11,3,11,0.00
2014-5-3,101.3,92.8,73.6,45.2,36.0,28.8,20,14,11,29.87,29.75,18,7,18,0.00
2014-5-4,82.0,81.8,81.1,29.8,29.6,29.1,15,15,15,29.83,29.81,8,6,8,0.00
2014-5-5,86.7,75.4,60.1,49.0,33.9,23.0,65,25,15,29.85,29.73,25,9,25,0.01
2014-5-6,68.7,61.0,55.9,48.6,41.4,36.0,67,50,31,29.76,29.69,21,13,21,0.00
2014-5-7,72.5,62.7,53.4,48.3,43.3,39.4,63,50,32,29.85,29.73,20,9,20,0.00
2014-5-8,84.9,69.0,54.5,48.9,43.1,36.7,64,42,20,29.93,29.84,14,4,14,0.00
2014-5-9,84.7,72.9,61.2,50.4,46.1,40.5,57,40,25,29.92,29.79,15,6,15,0.00
2014-5-10,81.7,70.5,64.2,53.2,48.9,39.2,61,48,23,29.81,29.62,22,9,22,0.00
2014-5-14,99.0,84.0,70.9,38.4,32.2,23.0,19,16,11,30.14,29.97,12,4,12,0.00
2014-5-15,100.8,87.0,73.2,44.7,33.4,24.3,19,15,11,30.03,29.90,8,2,8,0.00
2014-5-16,102.2,89.2,77.5,44.9,35.5,28.8,18,15,11,29.94,29.77,16,6,16,0.00
2014-5-17,98.1,88.2,80.6,41.5,37.2,31.5,23,17,12,29.81,29.68,20,9,20,0.00
2014-5-18,90.0,82.0,72.7,48.3,38.1,28.7,37,22,15,29.75,29.67,21,10,21,0.00
2014-5-19,85.8,76.0,67.6,51.7,41.2,30.8,54,30,18,29.79,29.71,20,10,20,0.00
2014-5-20,74.7,65.7,59.5,48.5,43.3,37.2,62,46,29,29.87,29.77,24,10,24,0.00
2014-5-21,79.9,67.1,55.9,50.1,44.3,39.9,65,46,24,29.88,29.79,14,6,14,0.00
2014-5-22,83.1,70.9,61.2,52.1,46.5,39.1,59,43,25,29.85,29.81,13,4,13,0.00
2014-6-20,104.9,90.1,75.6,46.6,41.4,35.8,25,19,11,29.85,29.73,13,4,13,0.00
2014-6-21,101.5,89.4,79.0,45.4,38.6,29.1,25,17,11,29.81,29.70,16,5,16,0.00
2014-6-22,97.3,87.8,77.4,51.4,38.8,30.5,31,19,12,29.80,29.70,19,6,19,0.00
2014-6-23,98.8,86.7,75.4,52.9,42.6,35.1,39,23,11,29.82,29.73,11,4,11,0.00
2014-6-24,102.0,86.9,75.2,55.3,45.5,35.4,38,25,11,29.85,29.73,13,3,13,0.00
2014-6-25,99.1,86.9,75.9,56.7,52.2,45.7,45,32,18,29.78,29.68,14,5,14,0.00
2014-6-26,93.9,84.1,75.4,57.4,53.9,48.0,52,37,22,29.78,29.69,24,9,24,0.00
2014-6-27,97.0,82.6,71.2,60.5,56.2,52.6,57,42,23,29.76,29.65,14,4,14,0.00
2014-6-28,103.5,87.2,74.5,61.2,55.5,44.7,56,37,14,29.77,29.67,10,3,10,0.00
2014-6-29,102.9,95.5,77.0,63.2,57.9,44.2,50,30,14,29.84,29.71,10,3,10,0.00
2014-6-30,105.8,95.9,79.2,65.6,59.1,43.5,53,31,13,29.83,29.68,10,3,10,0.00
2014-7-1,108.1,94.8,80.2,61.2,54.0,41.9,47,27,11,29.81,29.65,14,4,14,0.00
2014-7-2,106.0,95.6,80.8,62.1,53.9,42.8,50,27,12,29.83,29.70,12,4,12,0.00
2014-7-3,105.3,95.2,80.8,65.5,58.4,44.4,47,30,13,29.90,29.73,9,3,9,0.00
2014-7-4,102.2,94.2,81.3,71.0,66.6,50.8,71,42,26,30.00,29.84,13,4,13,0.00
2014-7-5,104.5,94.2,83.7,69.1,56.6,43.5,39,29,13,29.99,29.84,18,4,18,0.00
2014-7-6,106.0,97.9,81.7,57.4,48.8,42.8,42,20,12,29.93,29.75,19,7,19,0.00
2014-7-7,106.5,96.1,82.0,54.7,48.5,42.7,37,21,12,29.83,29.69,18,6,18,0.00
2014-7-8,108.7,97.7,82.6,56.1,48.2,41.9,29,20,11,29.88,29.73,14,5,14,0.00
2014-7-9,103.8,94.4,81.7,71.9,63.1,44.5,62,37,15,29.91,29.75,14,4,14,0.00
2014-7-10,100.8,92.1,77.5,57.6,48.4,35.1,44,24,12,29.88,29.74,19,7,19,0.00
2014-7-11,99.5,90.0,78.6,57.9,51.7,38.3,42,28,13,29.89,29.80,17,7,17,0.00
2014-7-12,103.8,94.3,76.3,60.6,50.6,38.3,44,25,12,29.91,29.80,12,3,12,0.00
2014-7-13,111.4,101.5,81.9,61.6,50.5,41.9,38,20,11,29.87,29.72,14,3,14,0.00
2014-7-14,101.3,91.0,81.7,73.6,67.6,55.3,74,48,30,29.97,29.84,11,3,11,0.00
2014-7-15,103.3,92.5,79.3,68.6,62.8,57.3,58,38,26,29.97,29.81,17,5,17,0.00
2014-7-16,98.1,88.7,78.1,60.7,49.1,36.5,53,27,13,29.90,29.77,24,8,24,0.00
2014-7-17,95.0,82.9,77.7,57.1,49.9,32.0,47,34,14,29.87,29.77,20,6,20,0.00
2014-7-18,97.9,86.9,72.3,56.4,50.5,39.9,50,30,14,29.89,29.77,13,4,13,0.00
2014-7-19,93.0,86.3,77.2,61.4,55.5,49.7,43,35,31,29.92,29.82,6,2,6,0.00
2014-7-20,99.1,85.3,73.6,61.2,59.0,56.1,62,43,26,29.91,29.79,14,3,14,0.00
2014-7-21,101.3,92.1,75.4,58.9,51.4,42.5,50,27,15,29.95,29.85,15,5,15,0.00
2014-7-22,104.9,91.6,75.2,54.8,46.8,38.0,40,23,12,29.95,29.85,12,4,12,0.00
2014-7-23,110.5,102.0,79.3,52.4,42.5,30.9,24,14,11,29.91,29.76,15,6,15,0.00
2014-7-24,112.8,99.2,85.6,52.3,43.6,34.7,23,15,11,29.81,29.64,9,3,9,0.00
2014-7-25,100.0,90.3,85.6,75.1,58.8,37.6,67,38,12,29.88,29.74,11,2,11,0.02
2014-7-26,106.5,92.2,81.7,69.7,60.6,54.1,54,36,21,29.93,29.78,7,2,7,0.00
2014-7-27,97.7,89.6,83.1,71.2,60.6,51.2,60,38,33,30.03,29.83,9,3,9,0.00
2014-7-28,102.0,94.2,83.1,64.9,53.9,44.6,47,27,15,30.00,29.88,16,5,16,0.00
2014-7-29,106.0,96.6,82.8,58.8,49.6,42.8,40,22,12,29.95,29.81,17,5,17,0.00
2014-7-30,108.3,95.6,83.3,61.4,48.9,41.9,45,22,11,29.88,29.77,16,5,16,0.00
2014-7-31,106.9,95.9,84.0,58.3,50.4,42.9,37,23,12,29.85,29.74,10,3,10,0.00
2014-8-1,102.4,95.3,83.1,71.0,65.4,51.8,57,38,27,29.93,29.77,11,3,11,0.00
2014-8-2,89.4,81.8,77.7,73.2,67.3,55.0,80,62,33,30.00,29.82,8,2,8,0.01
2014-8-3,92.1,80.8,75.6,74.3,68.7,63.5,88,68,42,29.94,29.84,15,2,15,0.07
2014-8-4,94.8,86.8,74.1,69.1,57.1,46.5,81,40,24,29.95,29.83,17,6,17,0.00
2014-8-5,99.7,86.7,74.7,47.9,41.4,35.0,35,22,11,29.94,29.85,14,4,14,0.00
2014-8-6,98.1,85.8,72.7,53.2,44.7,33.9,38,25,12,29.91,29.80,16,5,16,0.00
2014-8-7,100.4,85.9,71.6,57.5,43.1,32.9,42,24,11,29.87,29.77,7,2,7,0.00
2014-8-8,99.9,87.2,74.5,61.1,52.5,35.1,53,33,11,29.89,29.76,8,2,8,0.00
2014-8-9,100.2,88.0,77.0,60.7,51.1,35.4,44,30,11,29.93,29.81,8,2,8,0.00
2014-8-10,104.9,94.8,78.1,60.7,51.5,43.5,46,25,13,29.93,29.78,13,3,14,0.00
2014-8-11,103.8,93.1,83.1,68.5,56.6,44.5,54,30,15,29.91,29.78,14,2,14,0.02
2014-8-12,99.7,92.5,83.5,71.2,66.3,53.0,65,43,34,29.94,29.79,16,3,16,0.00
2014-8-13,98.8,90.6,79.7,73.3,67.5,55.0,75,48,31,29.93,29.81,14,3,14,0.00
2014-8-14,103.3,94.9,78.1,62.9,48.5,35.1,45,22,11,29.90,29.79,18,6,18,0.00
2014-8-15,103.8,95.0,78.3,62.0,50.7,33.2,36,23,14,29.94,29.80,17,4,17,0.00
2014-8-16,106.0,99.4,80.6,62.8,49.4,42.8,42,20,12,29.95,29.80,13,4,13,0.00
2014-8-17,107.8,97.7,82.8,54.1,46.8,40.3,34,19,11,29.89,29.71,19,6,19,0.00
2014-8-18,96.3,89.7,79.0,72.3,67.2,44.6,79,49,23,29.92,29.74,14,4,14,0.00
2014-8-19,95.9,86.1,76.8,55.8,50.1,36.5,38,30,14,29.80,29.69,24,8,24,0.00
2014-8-20,92.1,84.0,75.4,60.0,54.1,39.8,56,36,27,29.89,29.77,15,4,15,0.01
2014-8-21,95.9,84.0,73.9,62.6,57.8,52.4,60,43,25,29.93,29.82,18,2,18,0.00
2014-8-22,95.5,84.5,73.0,66.8,55.7,32.2,72,41,17,29.95,29.80,21,5,21,0.00
2014-8-23,80.2,79.9,78.6,31.6,30.0,28.9,18,16,16,29.85,29.83,11,5,11,0.00
2014-8-24,99.3,85.9,73.0,51.7,40.4,30.9,34,22,11,29.81,29.70,10,3,10,0.00
2014-8-25,95.5,86.3,79.9,55.6,47.8,37.5,37,27,17,29.85,29.75,17,5,17,0.00
2014-8-26,100.2,87.2,77.9,55.7,51.2,45.7,43,30,20,29.92,29.80,14,4,14,0.00
2014-8-27,102.0,91.3,82.9,55.4,50.2,44.4,35,26,15,29.97,29.86,12,5,12,0.00
2014-8-28,107.1,93.1,80.2,54.5,47.8,42.7,35,23,12,29.94,29.77,13,4,13,0.00
2014-8-29,107.6,99.5,81.5,51.9,45.2,36.3,29,17,12,29.83,29.67,17,5,17,0.00
2014-8-30,108.0,97.6,81.3,52.1,44.8,35.6,27,17,11,29.77,29.66,15,5,15,0.00
2014-8-31,104.7,92.2,81.7,53.7,46.1,35.7,32,22,11,29.77,29.65,13,4,13,0.00
2014-9-1,103.6,89.9,78.3,50.0,42.3,34.5,32,20,12,29.78,29.67,9,2,9,0.00
2014-9-2,103.8,92.2,77.9,46.1,42.2,35.1,25,18,11,29.77,29.66,18,4,18,0.00
2014-9-3,101.3,88.5,77.7,57.5,45.4,37.0,41,24,13,29.73,29.58,9,3,9,0.00
2014-9-4,81.3,79.4,78.1,53.1,44.5,37.6,38,30,23,29.63,29.60,3,1,3,0.00
2014-9-5,89.1,83.4,81.1,75.9,71.7,43.1,81,69,26,29.87,29.74,8,2,8,0.00
2014-9-6,99.7,89.5,80.1,74.4,69.6,65.1,77,54,34,29.92,29.77,6,1,6,0.00
2014-9-7,95.5,87.8,82.8,72.9,69.0,67.3,63,54,43,29.87,29.73,8,1,8,0.00
2014-9-8,92.3,85.7,73.9,76.7,62.0,51.7,99,48,27,29.85,29.76,14,5,14,0.85
2014-9-9,96.8,90.1,76.1,68.0,56.0,41.2,65,34,15,29.88,29.75,15,4,15,0.00
2014-9-10,98.1,90.0,74.8,67.0,61.0,54.3,68,40,25,29.90,29.78,8,2,8,0.00
2014-9-11,101.1,94.5,78.6,61.1,52.1,44.5,51,26,15,29.85,29.73,6,2,6,0.00
2014-9-12,104.4,91.9,79.5,60.1,49.9,43.4,39,26,13,29.83,29.69,8,2,8,0.00
2014-9-13,103.6,95.3,81.3,56.9,48.2,44.1,37,21,14,29.80,29.67,10,2,10,0.00
2014-9-14,88.7,78.2,71.6,58.7,42.6,32.9,37,28,23,30.30,29.92,4,1,4,0.00
2014-9-15,106.2,97.0,71.6,63.4,52.1,32.9,44,24,12,30.30,29.84,11,2,11,0.89
2014-9-16,97.9,90.0,82.6,74.3,69.4,56.0,74,52,32,30.02,29.85,8,2,8,0.00
2014-9-17,98.2,93.0,80.2,70.1,65.5,60.5,64,41,34,29.93,29.79,8,2,9,0.00
2014-9-18,93.6,88.7,79.5,61.1,52.6,41.4,50,31,17,29.89,29.79,24,11,24,0.00
2014-9-19,94.1,87.2,73.6,60.7,57.6,54.0,58,38,27,29.95,29.85,12,4,12,0.00
2014-9-20,95.5,82.8,73.9,62.7,58.8,55.7,58,45,29,29.99,29.86,10,2,10,0.00
2014-9-21,78.8,78.2,77.5,58.5,57.7,56.8,51,49,48,29.95,29.94,2,0,2,0.00
2014-9-22,96.8,85.3,74.5,53.3,48.4,40.3,44,29,19,30.06,29.95,6,2,6,0.00
2014-9-23,100.4,88.3,75.9,51.9,43.6,35.7,31,22,11,30.05,29.91,9,3,9,0.00
2014-9-24,102.0,94.4,78.1,58.0,50.0,41.6,36,23,15,30.00,29.87,8,2,8,0.00
2014-9-25,101.1,91.1,81.1,68.3,60.3,54.1,46,36,25,30.03,29.90,17,3,17,0.00
2014-9-26,94.1,88.5,78.3,74.8,60.9,41.6,77,42,24,29.97,29.82,19,5,19,0.00
2014-9-27,79.0,74.2,67.8,55.3,44.5,24.0,63,37,16,29.91,29.79,25,12,25,0.00
2014-9-28,80.8,74.5,67.8,54.9,48.5,38.4,63,43,24,29.97,29.88,17,7,17,0.00
2014-9-29,91.0,77.6,71.2,54.7,48.7,39.8,56,39,21,30.00,29.92,5,2,5,0.00
2014-9-30,95.5,80.9,71.6,50.6,42.8,36.9,39,27,13,29.98,29.81,8,2,8,0.00
2014-10-1,95.4,83.2,70.9,46.7,40.7,32.8,37,23,15,29.99,29.82,15,6,15,0.00
2014-10-2,97.7,83.5,71.6,38.5,33.1,24.4,24,17,12,30.14,30.00,16,4,16,0.00
2014-10-3,76.8,76.1,75.6,31.4,29.9,29.0,19,18,18,30.14,30.12,5,3,5,0.00
2014-10-4,102.2,90.1,78.6,44.8,36.5,29.9,24,16,11,30.10,29.95,5,2,5,0.00
2014-10-5,82.0,78.4,77.2,32.2,31.1,30.2,19,18,16,30.02,29.99,4,2,4,0.00
2014-10-6,95.7,84.1,74.8,53.8,39.1,30.2,37,21,14,30.03,29.93,8,2,8,0.00
2014-10-7,88.2,80.0,75.6,62.7,54.2,39.1,58,42,24,30.05,29.98,7,2,7,0.00
2014-10-8,72.5,72.0,71.8,58.3,58.2,58.1,62,62,61,30.01,29.99,2,1,2,0.00
2014-10-9,88.9,78.5,72.5,59.2,54.3,45.1,63,46,22,30.03,29.92,8,2,8,0.00
2014-10-10,90.0,80.6,74.7,60.6,54.7,50.6,49,41,28,30.06,29.96,5,1,5,0.00
2014-10-11,93.6,83.2,74.5,53.5,48.9,41.6,45,31,21,30.08,29.97,4,1,4,0.00
2014-10-12,99.1,88.8,75.0,45.5,37.3,34.2,35,17,11,29.99,29.88,19,8,19,0.00
2014-10-13,95.9,82.8,73.9,37.3,32.8,28.9,20,17,13,30.15,30.01,14,4,14,0.00
2014-10-14,90.7,80.7,74.3,42.8,34.0,28.9,28,19,14,30.08,29.93,8,2,8,0.00
2014-10-15,84.0,78.5,76.3,52.0,44.0,37.9,38,30,25,30.03,29.94,11,4,11,0.00
2014-10-16,85.3,80.2,78.4,50.7,47.9,43.5,38,33,25,30.06,29.95,8,2,8,0.00
2014-10-17,80.6,80.6,80.6,43.5,43.5,43.5,27,27,27,30.01,29.93,8,3,8,0.00
2014-10-18,87.6,82.8,80.6,50.2,46.6,43.5,30,28,26,29.96,29.86,7,1,7,0.00
2014-10-19,91.6,86.0,83.7,51.8,50.1,46.2,33,29,22,29.95,29.85,7,2,7,0.00
2014-10-20,83.7,83.7,83.7,51.5,51.5,51.5,33,33,33,29.99,29.88,7,2,7,0.00
2014-10-21,89.6,83.8,75.0,51.6,43.8,34.5,34,26,15,29.97,29.82,15,4,15,0.00
2014-10-22,90.9,77.9,68.0,45.5,36.8,29.7,32,23,16,30.03,29.90,6,2,6,0.00
2014-10-23,93.2,83.9,71.1,50.5,44.7,31.8,36,26,18,30.07,29.97,8,2,8,0.00
2014-10-25,90.1,80.8,73.8,50.9,46.5,40.9,39,30,23,30.06,29.96,16,6,16,0.00
2014-10-26,80.4,75.3,66.9,52.3,43.4,29.8,51,34,16,29.99,29.85,15,6,15,0.00
2014-10-27,88.2,72.8,61.7,47.9,40.4,31.9,53,33,17,29.98,29.89,4,2,4,0.00
2014-10-28,88.2,74.5,63.9,41.3,36.0,27.8,36,25,18,30.08,29.99,4,2,4,0.00
2014-10-29,91.4,77.5,67.3,37.4,31.8,25.2,24,19,15,30.11,30.01,5,2,5,0.00
2014-10-30,87.3,76.6,68.4,43.6,35.7,27.3,29,23,18,30.06,29.95,8,2,8,0.00
2014-10-31,79.3,70.9,64.9,53.8,46.4,37.0,62,43,28,29.96,29.82,14,5,14,0.00
2014-11-5,89.4,73.9,60.6,35.8,27.7,21.7,23,18,14,30.22,30.10,13,5,13,0.00
2014-11-6,88.9,75.1,65.8,35.9,29.3,24.4,22,19,15,30.28,30.16,4,2,4,0.00
2014-11-7,90.3,75.1,66.9,37.3,29.2,22.9,23,19,14,30.20,30.07,5,2,5,0.00
2014-11-8,92.3,76.4,67.1,40.6,32.1,25.5,25,20,15,30.14,30.03,4,2,4,0.00
2014-11-9,92.3,76.3,68.5,41.3,33.6,27.3,31,21,15,30.05,29.83,6,2,6,0.00
2014-11-10,84.7,72.1,62.8,48.7,37.8,28.5,55,30,16,29.86,29.77,17,3,17,0.00
2014-11-11,69.4,63.8,57.9,47.7,45.6,42.9,64,52,43,29.92,29.84,13,4,13,0.00
2014-11-15,73.0,65.2,58.6,52.1,47.1,43.6,69,53,39,30.05,29.93,16,6,16,0.00
2014-11-16,69.6,61.4,57.7,51.0,26.3,21.1,68,28,18,30.31,29.98,23,8,23,0.00
2014-11-17,78.4,63.4,56.7,30.0,22.8,20.7,25,21,16,30.29,30.16,11,4,11,0.00
2014-11-18,76.5,63.4,56.3,29.8,22.9,20.8,25,21,16,30.29,30.19,6,2,6,0.00
2014-11-19,74.5,62.6,53.8,29.5,21.9,15.8,25,21,16,30.20,30.06,4,2,4,0.00
2014-11-20,77.5,64.6,55.4,49.2,33.9,21.6,62,34,20,30.11,29.96,9,3,9,0.00
2014-11-21,70.2,63.9,54.7,52.1,44.9,38.9,87,51,35,30.06,29.92,10,2,10,0.08
2014-11-22,75.6,66.5,55.0,45.1,39.8,29.3,49,38,20,30.11,29.94,21,5,21,0.00
2014-11-23,64.8,64.8,64.8,42.9,42.9,42.9,45,45,45,29.97,29.96,3,3,6,0.00
2014-11-24,76.6,64.6,57.7,29.9,23.2,21.1,24,21,16,30.41,30.22,20,6,20,0.00
2014-11-25,76.1,63.5,55.4,29.5,23.0,20.1,25,21,16,30.48,30.33,9,2,9,0.00
2014-11-26,79.5,64.8,54.5,30.1,23.7,16.4,25,21,16,30.34,30.22,4,2,4,0.00
2014-11-27,85.3,71.9,60.1,36.0,28.1,21.8,23,20,15,30.23,30.17,4,2,4,0.00
2014-11-28,83.8,68.8,60.3,35.8,26.4,21.7,24,20,15,30.09,29.93,4,2,4,0.00
2014-11-29,76.6,64.7,57.7,33.6,27.9,22.1,32,25,18,29.97,29.85,6,1,6,0.00
2014-11-30,72.0,62.8,57.4,51.2,46.1,21.0,68,56,24,30.11,29.89,14,4,14,0.00
2014-12-1,69.4,62.8,56.1,48.1,43.8,41.5,67,50,40,30.23,30.09,3,1,3,0.00
2014-12-2,64.6,58.4,56.8,56.4,52.7,38.6,97,84,43,30.08,29.95,9,1,9,0.07
2014-12-3,61.0,58.5,55.4,57.5,56.1,54.4,99,92,81,30.10,30.01,4,0,4,0.05
2014-12-4,64.8,59.4,55.6,62.0,57.9,54.5,99,95,83,30.12,29.96,4,1,4,0.18
2014-12-5,65.5,59.7,53.6,57.3,54.6,51.1,97,84,72,30.20,30.11,4,1,4,0.00
2014-12-6,76.6,65.5,59.2,56.3,52.3,46.2,89,65,43,30.25,30.16,11,3,11,0.00
2014-12-7,77.2,66.4,58.5,51.1,47.1,44.5,69,51,35,30.27,30.15,7,2,7,0.00
2014-12-8,74.1,66.1,60.1,48.9,42.7,36.2,57,44,31,30.17,30.10,7,2,7,0.00
2014-12-9,81.0,68.2,59.7,44.2,36.7,30.6,47,33,20,30.15,30.04,14,4,14,0.00
2014-12-10,81.0,66.4,59.9,38.3,36.0,30.8,41,33,19,30.08,29.98,10,2,10,0.00
2014-12-11,70.3,63.2,58.1,44.7,40.6,37.5,57,44,35,30.05,29.95,3,2,3,0.00
2014-12-12,58.3,55.4,52.9,54.4,48.7,42.4,97,79,58,30.07,29.94,14,3,17,0.17
2014-12-13,61.5,55.1,50.2,45.2,42.1,38.9,76,62,45,30.13,30.06,14,5,14,0.00
2014-12-14,67.1,55.8,48.0,39.5,35.5,29.5,65,48,27,30.17,30.08,3,2,3,0.00
2014-12-15,63.1,55.4,51.1,39.4,36.4,32.9,57,49,34,30.15,30.03,4,1,4,0.00
2014-12-16,59.4,54.1,49.8,48.3,43.2,35.5,77,67,48,30.08,30.00,5,1,5,0.01
2014-12-17,55.2,52.9,50.2,53.3,50.2,45.5,99,91,78,30.11,30.00,7,1,7,0.13
2014-12-18,64.0,54.4,47.1,49.1,42.8,37.3,93,68,39,30.24,30.12,4,1,4,0.01
2014-12-19,67.3,55.1,48.2,42.8,39.5,36.8,70,57,36,30.28,30.18,4,2,4,0.00
2014-12-20,63.5,55.6,48.9,46.7,43.1,39.1,77,64,45,30.21,30.10,3,1,3,0.00
2014-12-21,66.7,57.3,50.5,48.5,46.2,44.3,81,67,48,30.19,30.08,3,2,3,0.00
2014-12-22,77.9,64.9,53.8,47.0,43.6,31.5,70,49,22,30.08,29.96,9,2,9,0.00
2014-12-23,79.5,69.0,59.7,37.6,32.3,6.5,32,26,21,30.24,30.05,25,6,25,0.00
2014-12-24,69.8,59.5,53.4,30.2,23.5,17.7,34,25,17,30.21,29.79,13,2,13,0.00
2014-12-25,67.5,57.9,52.0,44.8,26.2,15.3,60,32,19,29.96,29.74,28,13,28,0.00
2014-12-26,62.4,52.1,45.5,23.0,16.7,11.7,28,24,22,30.25,29.97,27,9,27,0.00
2014-12-27,59.7,50.3,45.0,21.9,15.3,10.3,27,25,22,30.42,30.25,10,3,10,0.00
2014-12-28,45.3,44.3,44.1,10.7,10.6,10.4,25,25,24,30.33,30.31,4,2,4,0.00
2014-12-29,63.0,52.4,42.3,28.6,22.0,12.4,48,31,22,30.19,29.99,6,1,6,0.00
2014-12-30,58.3,47.3,40.1,34.8,29.1,17.4,73,51,29,30.04,29.93,24,10,24,0.00
2014-12-31,49.8,43.2,37.6,30.7,14.5,9.6,68,32,24,30.06,29.97,39,10,39,0.01
2015-1-1,54.0,44.2,34.9,24.6,20.6,15.4,48,39,26,30.21,30.04,5,1,5,0.00
2015-1-2,59.9,50.4,37.0,22.1,17.7,12.0,43,27,23,30.17,30.06,5,2,5,0.00